sensor_id;sensor_type;location;lat;lon;timestamp;temperature;humidity
64951;DHT22;51482;47.014;7.652;2022-12-18T00:01:19;0.50;99.90
64951;DHT22;51482;47.014;7.652;2022-12-18T00:03:46;0.20;99.90
64951;DHT22;51482;47.014;7.652;2022-12-18T00:06:11;0.20;99.90
64951;DHT22;51482;47.014;7.652;2022-12-18T00:08:37;0.00;99.90
64951;DHT22;51482;47.014;7.652;2022-12-18T00:11:04;0.60;99.90
64951;DHT22;51482;47.014;7.652;2022-12-18T00:13:30;0.10;99.90
64951;DHT22;51482;47.014;7.652;2022-12-18T00:16:01;-0.10;99.90
64951;DHT22;51482;47.014;7.652;2022-12-18T00:18:27;0.20;99.90
64951;DHT22;51482;47.014;7.652;2022-12-18T00:20:53;0.20;99.90
64951;DHT22;51482;47.014;7.652;2022-12-18T00:23:18;0.60;99.90
64951;DHT22;51482;47.014;7.652;2022-12-18T00:25:44;0.50;99.90
64951;DHT22;51482;47.014;7.652;2022-12-18T00:28:09;0.70;99.90
64951;DHT22;51482;47.014;7.652;2022-12-18T00:30:35;0.10;99.90
64951;DHT22;51482;47.014;7.652;2022-12-18T00:33:00;-0.30;99.90
64951;DHT22;51482;47.014;7.652;2022-12-18T00:35:26;0.10;99.90
64951;DHT22;51482;47.014;7.652;2022-12-18T00:37:51;0.60;99.90
64951;DHT22;51482;47.014;7.652;2022-12-18T00:40:17;0.20;99.90
64951;DHT22;51482;47.014;7.652;2022-12-18T00:42:42;0.10;99.90
64951;DHT22;51482;47.014;7.652;2022-12-18T00:45:29;0.10;99.90
64951;DHT22;51482;47.014;7.652;2022-12-18T00:47:55;0.10;99.90
64951;DHT22;51482;47.014;7.652;2022-12-18T00:50:23;0.20;99.90
64951;DHT22;51482;47.014;7.652;2022-12-18T00:52:49;0.70;99.90
64951;DHT22;51482;47.014;7.652;2022-12-18T00:55:15;0.60;99.90
64951;DHT22;51482;47.014;7.652;2022-12-18T00:57:41;0.40;99.90
64951;DHT22;51482;47.014;7.652;2022-12-18T01:00:09;0.80;99.90
64951;DHT22;51482;47.014;7.652;2022-12-18T01:02:35;0.50;99.90
64951;DHT22;51482;47.014;7.652;2022-12-18T01:05:01;0.30;99.90
64951;DHT22;51482;47.014;7.652;2022-12-18T01:07:26;-0.40;99.90
64951;DHT22;51482;47.014;7.652;2022-12-18T01:09:52;0.40;99.90
64951;DHT22;51482;47.014;7.652;2022-12-18T01:12:17;0.60;99.90
64951;DHT22;51482;47.014;7.652;2022-12-18T01:14:43;0.80;99.90
64951;DHT22;51482;47.014;7.652;2022-12-18T01:17:08;0.10;99.90
64951;DHT22;51482;47.014;7.652;2022-12-18T01:19:34;0.10;99.90
64951;DHT22;51482;47.014;7.652;2022-12-18T01:22:00;0.20;99.90
64951;DHT22;51482;47.014;7.652;2022-12-18T01:24:25;-0.50;99.90
64951;DHT22;51482;47.014;7.652;2022-12-18T01:26:51;0.20;99.90
64951;DHT22;51482;47.014;7.652;2022-12-18T01:29:16;0.40;99.90
64951;DHT22;51482;47.014;7.652;2022-12-18T01:31:42;0.70;99.90
64951;DHT22;51482;47.014;7.652;2022-12-18T01:34:08;0.60;99.90
64951;DHT22;51482;47.014;7.652;2022-12-18T01:36:36;0.70;99.90
64951;DHT22;51482;47.014;7.652;2022-12-18T01:39:07;0.60;99.90
64951;DHT22;51482;47.014;7.652;2022-12-18T01:41:34;0.40;99.90
64951;DHT22;51482;47.014;7.652;2022-12-18T01:50:08;0.20;99.90
64951;DHT22;51482;47.014;7.652;2022-12-18T01:52:34;0.20;99.90
64951;DHT22;51482;47.014;7.652;2022-12-18T01:55:01;0.90;99.90
64951;DHT22;51482;47.014;7.652;2022-12-18T01:57:29;0.90;99.90
64951;DHT22;51482;47.014;7.652;2022-12-18T02:00:00;0.50;99.90
64951;DHT22;51482;47.014;7.652;2022-12-18T02:02:28;0.90;99.90
64951;DHT22;51482;47.014;7.652;2022-12-18T02:04:54;0.20;99.90
64951;DHT22;51482;47.014;7.652;2022-12-18T02:10:44;0.20;99.90
64951;DHT22;51482;47.014;7.652;2022-12-18T02:13:41;0.80;99.90
64951;DHT22;51482;47.014;7.652;2022-12-18T02:16:34;0.20;99.90
64951;DHT22;51482;47.014;7.652;2022-12-18T02:19:14;0.20;99.90
64951;DHT22;51482;47.014;7.652;2022-12-18T02:25:01;0.20;99.90
64951;DHT22;51482;47.014;7.652;2022-12-18T02:27:31;0.80;99.90
64951;DHT22;51482;47.014;7.652;2022-12-18T02:29:59;0.80;99.90
64951;DHT22;51482;47.014;7.652;2022-12-18T02:32:33;0.90;99.90
64951;DHT22;51482;47.014;7.652;2022-12-18T02:35:01;0.40;99.90
64951;DHT22;51482;47.014;7.652;2022-12-18T02:37:28;0.70;99.90
64951;DHT22;51482;47.014;7.652;2022-12-18T02:39:56;0.60;99.90
64951;DHT22;51482;47.014;7.652;2022-12-18T02:42:24;0.50;99.90
64951;DHT22;51482;47.014;7.652;2022-12-18T02:44:51;-0.30;99.90
64951;DHT22;51482;47.014;7.652;2022-12-18T02:47:23;0.50;99.90
64951;DHT22;51482;47.014;7.652;2022-12-18T02:50:10;0.20;99.90
64951;DHT22;51482;47.014;7.652;2022-12-18T02:58:15;0.10;99.90
64951;DHT22;51482;47.014;7.652;2022-12-18T03:00:51;0.60;99.90
64951;DHT22;51482;47.014;7.652;2022-12-18T03:03:24;-0.20;99.90
64951;DHT22;51482;47.014;7.652;2022-12-18T03:06:00;0.00;99.90
64951;DHT22;51482;47.014;7.652;2022-12-18T03:08:34;0.00;99.90
64951;DHT22;51482;47.014;7.652;2022-12-18T03:11:04;0.10;99.90
64951;DHT22;51482;47.014;7.652;2022-12-18T03:13:33;0.60;99.90
64951;DHT22;51482;47.014;7.652;2022-12-18T03:16:01;0.70;99.90
64951;DHT22;51482;47.014;7.652;2022-12-18T03:18:48;0.60;99.90
64951;DHT22;51482;47.014;7.652;2022-12-18T03:21:18;0.00;99.90
64951;DHT22;51482;47.014;7.652;2022-12-18T03:23:48;0.60;99.90
64951;DHT22;51482;47.014;7.652;2022-12-18T03:26:19;0.80;99.90
64951;DHT22;51482;47.014;7.652;2022-12-18T03:28:50;0.60;99.90
64951;DHT22;51482;47.014;7.652;2022-12-18T03:31:18;0.20;99.90
64951;DHT22;51482;47.014;7.652;2022-12-18T03:33:54;-0.50;99.90
64951;DHT22;51482;47.014;7.652;2022-12-18T03:36:20;0.50;99.90
64951;DHT22;51482;47.014;7.652;2022-12-18T03:38:46;0.80;99.90
64951;DHT22;51482;47.014;7.652;2022-12-18T03:41:53;0.50;99.90
64951;DHT22;51482;47.014;7.652;2022-12-18T03:45:10;0.40;99.90
64951;DHT22;51482;47.014;7.652;2022-12-18T03:55:04;-0.50;99.90
64951;DHT22;51482;47.014;7.652;2022-12-18T03:57:31;-0.50;99.90
64951;DHT22;51482;47.014;7.652;2022-12-18T04:00:03;-0.10;99.90
64951;DHT22;51482;47.014;7.652;2022-12-18T04:02:30;0.00;99.90
64951;DHT22;51482;47.014;7.652;2022-12-18T04:04:59;-0.70;99.90
64951;DHT22;51482;47.014;7.652;2022-12-18T04:07:25;-0.30;99.90
64951;DHT22;51482;47.014;7.652;2022-12-18T04:09:54;-0.10;99.90
64951;DHT22;51482;47.014;7.652;2022-12-18T04:12:24;-1.30;99.90
64951;DHT22;51482;47.014;7.652;2022-12-18T04:14:50;-0.30;99.90
64951;DHT22;51482;47.014;7.652;2022-12-18T04:17:16;-0.50;99.90
64951;DHT22;51482;47.014;7.652;2022-12-18T04:19:41;-0.10;99.90
64951;DHT22;51482;47.014;7.652;2022-12-18T04:22:09;-0.10;99.90
64951;DHT22;51482;47.014;7.652;2022-12-18T04:24:35;-1.20;99.90
64951;DHT22;51482;47.014;7.652;2022-12-18T04:27:01;-0.60;99.90
64951;DHT22;51482;47.014;7.652;2022-12-18T04:29:27;0.10;99.90
64951;DHT22;51482;47.014;7.652;2022-12-18T04:31:52;-0.10;99.90
64951;DHT22;51482;47.014;7.652;2022-12-18T04:34:18;-0.10;99.90
64951;DHT22;51482;47.014;7.652;2022-12-18T04:36:43;-0.50;99.90
64951;DHT22;51482;47.014;7.652;2022-12-18T04:39:09;-0.60;99.90
64951;DHT22;51482;47.014;7.652;2022-12-18T04:41:34;0.10;99.90
64951;DHT22;51482;47.014;7.652;2022-12-18T04:44:00;0.10;99.90
64951;DHT22;51482;47.014;7.652;2022-12-18T04:46:25;0.00;99.90
64951;DHT22;51482;47.014;7.652;2022-12-18T04:48:51;0.00;99.90
64951;DHT22;51482;47.014;7.652;2022-12-18T04:51:16;0.10;99.90
64951;DHT22;51482;47.014;7.652;2022-12-18T04:53:42;0.00;99.90
64951;DHT22;51482;47.014;7.652;2022-12-18T04:56:10;-0.10;99.90
64951;DHT22;51482;47.014;7.652;2022-12-18T04:58:37;-0.10;99.90
64951;DHT22;51482;47.014;7.652;2022-12-18T05:01:03;-0.50;99.90
64951;DHT22;51482;47.014;7.652;2022-12-18T05:03:28;-0.30;99.90
64951;DHT22;51482;47.014;7.652;2022-12-18T05:05:54;-0.70;99.90
64951;DHT22;51482;47.014;7.652;2022-12-18T05:08:20;-0.40;99.90
64951;DHT22;51482;47.014;7.652;2022-12-18T05:10:45;-0.10;99.90
64951;DHT22;51482;47.014;7.652;2022-12-18T05:13:11;-0.20;99.90
64951;DHT22;51482;47.014;7.652;2022-12-18T05:15:36;-0.10;99.90
64951;DHT22;51482;47.014;7.652;2022-12-18T05:18:03;-0.10;99.90
64951;DHT22;51482;47.014;7.652;2022-12-18T05:20:29;-0.70;99.90
64951;DHT22;51482;47.014;7.652;2022-12-18T05:22:54;-0.20;99.90
64951;DHT22;51482;47.014;7.652;2022-12-18T05:25:21;-0.70;99.90
64951;DHT22;51482;47.014;7.652;2022-12-18T05:27:47;-0.20;99.90
64951;DHT22;51482;47.014;7.652;2022-12-18T05:30:13;-0.50;99.90
64951;DHT22;51482;47.014;7.652;2022-12-18T05:32:39;-0.10;99.90
64951;DHT22;51482;47.014;7.652;2022-12-18T05:35:07;-0.10;99.90
64951;DHT22;51482;47.014;7.652;2022-12-18T05:37:33;-0.50;99.90
64951;DHT22;51482;47.014;7.652;2022-12-18T05:39:58;-0.60;99.90
64951;DHT22;51482;47.014;7.652;2022-12-18T05:42:24;-0.70;99.90
64951;DHT22;51482;47.014;7.652;2022-12-18T05:44:50;-1.20;99.90
64951;DHT22;51482;47.014;7.652;2022-12-18T05:47:15;-0.80;99.90
64951;DHT22;51482;47.014;7.652;2022-12-18T05:49:41;-0.60;99.90
64951;DHT22;51482;47.014;7.652;2022-12-18T05:52:06;-0.10;99.90
64951;DHT22;51482;47.014;7.652;2022-12-18T05:54:32;-1.20;99.90
64951;DHT22;51482;47.014;7.652;2022-12-18T05:56:58;0.10;99.90
64951;DHT22;51482;47.014;7.652;2022-12-18T05:59:23;-0.10;99.90
64951;DHT22;51482;47.014;7.652;2022-12-18T06:01:49;-0.80;99.90
64951;DHT22;51482;47.014;7.652;2022-12-18T06:04:15;-0.20;99.90
64951;DHT22;51482;47.014;7.652;2022-12-18T06:06:41;-0.10;99.90
64951;DHT22;51482;47.014;7.652;2022-12-18T06:09:06;-1.00;99.90
64951;DHT22;51482;47.014;7.652;2022-12-18T06:11:36;-0.10;99.90
64951;DHT22;51482;47.014;7.652;2022-12-18T06:14:03;-0.30;99.90
64951;DHT22;51482;47.014;7.652;2022-12-18T06:16:30;-0.70;99.90
64951;DHT22;51482;47.014;7.652;2022-12-18T06:19:00;-0.20;99.90
64951;DHT22;51482;47.014;7.652;2022-12-18T06:21:26;-0.10;99.90
64951;DHT22;51482;47.014;7.652;2022-12-18T06:23:52;-0.10;99.90
64951;DHT22;51482;47.014;7.652;2022-12-18T06:26:18;-0.40;99.90
64951;DHT22;51482;47.014;7.652;2022-12-18T06:28:44;0.10;99.90
64951;DHT22;51482;47.014;7.652;2022-12-18T06:31:10;0.10;99.90
64951;DHT22;51482;47.014;7.652;2022-12-18T06:33:35;0.10;99.90
64951;DHT22;51482;47.014;7.652;2022-12-18T06:36:03;-0.40;99.90
64951;DHT22;51482;47.014;7.652;2022-12-18T06:38:32;0.00;99.90
64951;DHT22;51482;47.014;7.652;2022-12-18T06:40:58;0.10;99.90
64951;DHT22;51482;47.014;7.652;2022-12-18T06:43:23;0.20;99.90
64951;DHT22;51482;47.014;7.652;2022-12-18T06:45:49;-0.40;99.90
64951;DHT22;51482;47.014;7.652;2022-12-18T06:48:18;-0.20;99.90
64951;DHT22;51482;47.014;7.652;2022-12-18T06:50:45;-0.10;99.90
64951;DHT22;51482;47.014;7.652;2022-12-18T06:53:10;-0.40;99.90
64951;DHT22;51482;47.014;7.652;2022-12-18T06:55:36;0.10;99.90
64951;DHT22;51482;47.014;7.652;2022-12-18T06:58:02;1.70;99.90
64951;DHT22;51482;47.014;7.652;2022-12-18T07:00:27;2.10;99.90
64951;DHT22;51482;47.014;7.652;2022-12-18T07:02:53;2.10;99.90
64951;DHT22;51482;47.014;7.652;2022-12-18T07:05:18;2.40;99.90
64951;DHT22;51482;47.014;7.652;2022-12-18T07:07:44;1.40;99.90
64951;DHT22;51482;47.014;7.652;2022-12-18T07:10:09;1.60;99.90
64951;DHT22;51482;47.014;7.652;2022-12-18T07:12:35;1.60;99.90
64951;DHT22;51482;47.014;7.652;2022-12-18T07:15:01;1.10;99.90
64951;DHT22;51482;47.014;7.652;2022-12-18T07:17:26;1.10;99.90
64951;DHT22;51482;47.014;7.652;2022-12-18T07:19:52;0.30;99.90
64951;DHT22;51482;47.014;7.652;2022-12-18T07:22:17;0.20;99.90
64951;DHT22;51482;47.014;7.652;2022-12-18T07:24:43;0.40;99.90
64951;DHT22;51482;47.014;7.652;2022-12-18T07:27:09;0.40;99.90
64951;DHT22;51482;47.014;7.652;2022-12-18T07:29:34;0.40;99.90
64951;DHT22;51482;47.014;7.652;2022-12-18T07:32:00;0.60;99.90
64951;DHT22;51482;47.014;7.652;2022-12-18T07:34:25;0.50;99.90
64951;DHT22;51482;47.014;7.652;2022-12-18T07:36:51;-0.20;99.90
64951;DHT22;51482;47.014;7.652;2022-12-18T07:39:16;-0.20;99.90
64951;DHT22;51482;47.014;7.652;2022-12-18T07:41:42;0.30;99.90
64951;DHT22;51482;47.014;7.652;2022-12-18T07:44:12;-0.10;99.90
64951;DHT22;51482;47.014;7.652;2022-12-18T07:46:38;-0.20;99.90
64951;DHT22;51482;47.014;7.652;2022-12-18T07:49:03;-0.80;99.90
64951;DHT22;51482;47.014;7.652;2022-12-18T07:51:29;0.50;99.90
64951;DHT22;51482;47.014;7.652;2022-12-18T07:53:55;-0.20;99.90
64951;DHT22;51482;47.014;7.652;2022-12-18T07:56:21;0.10;99.90
64951;DHT22;51482;47.014;7.652;2022-12-18T07:58:47;0.20;99.90
64951;DHT22;51482;47.014;7.652;2022-12-18T08:01:12;-0.70;99.90
64951;DHT22;51482;47.014;7.652;2022-12-18T08:03:39;-0.50;99.90
64951;DHT22;51482;47.014;7.652;2022-12-18T08:06:07;0.20;99.90
64951;DHT22;51482;47.014;7.652;2022-12-18T08:08:34;0.20;99.90
64951;DHT22;51482;47.014;7.652;2022-12-18T08:11:00;0.10;99.90
64951;DHT22;51482;47.014;7.652;2022-12-18T08:13:25;0.20;99.90
64951;DHT22;51482;47.014;7.652;2022-12-18T08:16:05;0.70;99.90
64951;DHT22;51482;47.014;7.652;2022-12-18T08:18:36;0.30;99.90
64951;DHT22;51482;47.014;7.652;2022-12-18T08:23:38;0.10;99.90
64951;DHT22;51482;47.014;7.652;2022-12-18T08:26:04;-0.20;99.90
64951;DHT22;51482;47.014;7.652;2022-12-18T08:28:29;0.70;99.90
64951;DHT22;51482;47.014;7.652;2022-12-18T08:30:55;0.60;99.90
64951;DHT22;51482;47.014;7.652;2022-12-18T08:33:21;0.40;99.90
64951;DHT22;51482;47.014;7.652;2022-12-18T08:35:46;-0.20;99.90
64951;DHT22;51482;47.014;7.652;2022-12-18T08:38:12;0.00;99.90
64951;DHT22;51482;47.014;7.652;2022-12-18T08:40:37;0.30;99.90
64951;DHT22;51482;47.014;7.652;2022-12-18T08:43:03;0.40;99.90
64951;DHT22;51482;47.014;7.652;2022-12-18T08:45:47;-0.30;99.90
64951;DHT22;51482;47.014;7.652;2022-12-18T08:48:12;0.70;99.90
64951;DHT22;51482;47.014;7.652;2022-12-18T08:50:38;0.20;99.90
64951;DHT22;51482;47.014;7.652;2022-12-18T08:53:04;0.70;99.90
64951;DHT22;51482;47.014;7.652;2022-12-18T08:55:29;-0.10;99.90
64951;DHT22;51482;47.014;7.652;2022-12-18T08:57:55;0.00;99.90
64951;DHT22;51482;47.014;7.652;2022-12-18T09:00:21;0.50;99.90
64951;DHT22;51482;47.014;7.652;2022-12-18T09:02:46;0.00;99.90
64951;DHT22;51482;47.014;7.652;2022-12-18T09:05:12;0.60;99.90
64951;DHT22;51482;47.014;7.652;2022-12-18T09:07:37;0.00;99.90
64951;DHT22;51482;47.014;7.652;2022-12-18T09:10:03;0.00;99.90
64951;DHT22;51482;47.014;7.652;2022-12-18T09:12:29;0.10;99.90
64951;DHT22;51482;47.014;7.652;2022-12-18T09:14:55;0.70;99.90
64951;DHT22;51482;47.014;7.652;2022-12-18T09:17:21;0.10;99.90
64951;DHT22;51482;47.014;7.652;2022-12-18T09:19:47;0.70;99.90
64951;DHT22;51482;47.014;7.652;2022-12-18T09:22:13;0.20;99.90
64951;DHT22;51482;47.014;7.652;2022-12-18T09:24:38;0.30;99.90
64951;DHT22;51482;47.014;7.652;2022-12-18T09:27:04;1.00;99.90
64951;DHT22;51482;47.014;7.652;2022-12-18T09:29:30;0.50;99.90
64951;DHT22;51482;47.014;7.652;2022-12-18T09:31:55;0.50;99.90
64951;DHT22;51482;47.014;7.652;2022-12-18T09:34:21;1.10;99.90
64951;DHT22;51482;47.014;7.652;2022-12-18T09:36:47;1.30;99.90
64951;DHT22;51482;47.014;7.652;2022-12-18T09:39:13;0.70;99.90
64951;DHT22;51482;47.014;7.652;2022-12-18T09:41:54;0.60;99.90
64951;DHT22;51482;47.014;7.652;2022-12-18T09:44:30;0.60;99.90
64951;DHT22;51482;47.014;7.652;2022-12-18T09:47:17;0.20;99.90
64951;DHT22;51482;47.014;7.652;2022-12-18T09:49:46;1.30;99.90
64951;DHT22;51482;47.014;7.652;2022-12-18T09:54:42;1.30;99.90
64951;DHT22;51482;47.014;7.652;2022-12-18T09:57:15;1.20;99.90
64951;DHT22;51482;47.014;7.652;2022-12-18T09:59:43;0.60;99.90
64951;DHT22;51482;47.014;7.652;2022-12-18T10:02:24;1.40;99.90
64951;DHT22;51482;47.014;7.652;2022-12-18T10:05:14;1.80;99.90
64951;DHT22;51482;47.014;7.652;2022-12-18T10:10:40;1.20;99.90
64951;DHT22;51482;47.014;7.652;2022-12-18T10:13:18;1.70;99.90
64951;DHT22;51482;47.014;7.652;2022-12-18T10:21:26;1.60;99.90
64951;DHT22;51482;47.014;7.652;2022-12-18T10:24:25;2.30;99.90
64951;DHT22;51482;47.014;7.652;2022-12-18T10:26:56;1.60;99.90
64951;DHT22;51482;47.014;7.652;2022-12-18T10:29:25;2.40;99.90
64951;DHT22;51482;47.014;7.652;2022-12-18T10:31:50;2.10;99.90
64951;DHT22;51482;47.014;7.652;2022-12-18T10:34:16;2.20;99.90
64951;DHT22;51482;47.014;7.652;2022-12-18T10:36:42;2.00;99.90
64951;DHT22;51482;47.014;7.652;2022-12-18T10:41:40;1.40;99.90
64951;DHT22;51482;47.014;7.652;2022-12-18T10:44:17;1.80;99.90
64951;DHT22;51482;47.014;7.652;2022-12-18T10:46:45;1.60;99.90
64951;DHT22;51482;47.014;7.652;2022-12-18T10:49:25;1.90;99.90
64951;DHT22;51482;47.014;7.652;2022-12-18T10:52:07;1.50;99.90
64951;DHT22;51482;47.014;7.652;2022-12-18T10:54:36;1.80;99.90
64951;DHT22;51482;47.014;7.652;2022-12-18T10:57:35;0.80;99.90
64951;DHT22;51482;47.014;7.652;2022-12-18T11:00:24;1.30;99.90
64951;DHT22;51482;47.014;7.652;2022-12-18T11:02:51;1.20;99.90
64951;DHT22;51482;47.014;7.652;2022-12-18T11:07:51;1.20;99.90
64951;DHT22;51482;47.014;7.652;2022-12-18T11:10:18;2.00;99.90
64951;DHT22;51482;47.014;7.652;2022-12-18T11:12:45;1.60;99.90
64951;DHT22;51482;47.014;7.652;2022-12-18T11:15:27;2.40;99.90
64951;DHT22;51482;47.014;7.652;2022-12-18T11:17:55;2.30;99.90
64951;DHT22;51482;47.014;7.652;2022-12-18T11:20:27;2.70;99.90
64951;DHT22;51482;47.014;7.652;2022-12-18T11:23:04;2.60;99.90
64951;DHT22;51482;47.014;7.652;2022-12-18T11:25:32;2.80;99.90
64951;DHT22;51482;47.014;7.652;2022-12-18T11:30:45;1.90;99.90
64951;DHT22;51482;47.014;7.652;2022-12-18T11:33:19;2.90;99.90
64951;DHT22;51482;47.014;7.652;2022-12-18T11:35:49;2.20;99.90
64951;DHT22;51482;47.014;7.652;2022-12-18T11:38:23;2.30;99.90
64951;DHT22;51482;47.014;7.652;2022-12-18T11:41:04;2.30;99.90
64951;DHT22;51482;47.014;7.652;2022-12-18T11:44:00;2.80;99.90
64951;DHT22;51482;47.014;7.652;2022-12-18T11:46:32;2.70;99.90
64951;DHT22;51482;47.014;7.652;2022-12-18T11:49:03;2.70;99.90
64951;DHT22;51482;47.014;7.652;2022-12-18T11:54:15;2.30;99.90
64951;DHT22;51482;47.014;7.652;2022-12-18T11:56:47;2.80;99.90
64951;DHT22;51482;47.014;7.652;2022-12-18T11:59:43;3.10;99.90
64951;DHT22;51482;47.014;7.652;2022-12-18T12:10:33;3.20;99.90
64951;DHT22;51482;47.014;7.652;2022-12-18T12:13:17;3.10;99.90
64951;DHT22;51482;47.014;7.652;2022-12-18T12:18:39;3.70;99.90
64951;DHT22;51482;47.014;7.652;2022-12-18T12:29:54;2.90;99.90
64951;DHT22;51482;47.014;7.652;2022-12-18T12:32:37;2.90;99.90
64951;DHT22;51482;47.014;7.652;2022-12-18T12:40:55;3.30;99.90
64951;DHT22;51482;47.014;7.652;2022-12-18T12:43:44;3.30;99.90
64951;DHT22;51482;47.014;7.652;2022-12-18T12:46:14;3.80;99.90
64951;DHT22;51482;47.014;7.652;2022-12-18T12:49:00;3.50;99.90
64951;DHT22;51482;47.014;7.652;2022-12-18T12:51:33;4.10;99.90
64951;DHT22;51482;47.014;7.652;2022-12-18T12:54:02;3.90;99.90
64951;DHT22;51482;47.014;7.652;2022-12-18T12:56:42;4.80;99.90
64951;DHT22;51482;47.014;7.652;2022-12-18T13:05:09;4.70;99.90
64951;DHT22;51482;47.014;7.652;2022-12-18T13:07:45;4.20;99.90
64951;DHT22;51482;47.014;7.652;2022-12-18T13:10:34;4.80;99.90
64951;DHT22;51482;47.014;7.652;2022-12-18T13:13:10;4.50;99.90
64951;DHT22;51482;47.014;7.652;2022-12-18T13:20:44;5.10;99.90
64951;DHT22;51482;47.014;7.652;2022-12-18T13:25:48;5.70;99.90
64951;DHT22;51482;47.014;7.652;2022-12-18T13:30:55;6.60;99.90
64951;DHT22;51482;47.014;7.652;2022-12-18T13:36:09;6.10;99.90
64951;DHT22;51482;47.014;7.652;2022-12-18T13:38:38;6.30;99.90
64951;DHT22;51482;47.014;7.652;2022-12-18T13:41:23;5.90;99.90
64951;DHT22;51482;47.014;7.652;2022-12-18T13:43:52;5.30;99.90
64951;DHT22;51482;47.014;7.652;2022-12-18T13:46:20;5.20;99.90
64951;DHT22;51482;47.014;7.652;2022-12-18T13:49:45;5.10;99.90
64951;DHT22;51482;47.014;7.652;2022-12-18T13:51:54;5.40;99.90
64951;DHT22;51482;47.014;7.652;2022-12-18T13:54:39;5.50;99.90
64951;DHT22;51482;47.014;7.652;2022-12-18T13:57:25;6.00;99.90
64951;DHT22;51482;47.014;7.652;2022-12-18T13:59:51;5.60;99.90
64951;DHT22;51482;47.014;7.652;2022-12-18T14:02:22;5.50;99.90
64951;DHT22;51482;47.014;7.652;2022-12-18T14:04:49;5.40;99.90
64951;DHT22;51482;47.014;7.652;2022-12-18T14:09:46;5.50;99.90
64951;DHT22;51482;47.014;7.652;2022-12-18T14:12:23;5.40;99.90
64951;DHT22;51482;47.014;7.652;2022-12-18T14:17:53;5.10;99.90
64951;DHT22;51482;47.014;7.652;2022-12-18T14:20:19;5.10;99.90
64951;DHT22;51482;47.014;7.652;2022-12-18T14:22:48;4.90;99.90
64951;DHT22;51482;47.014;7.652;2022-12-18T14:25:23;4.80;99.90
64951;DHT22;51482;47.014;7.652;2022-12-18T14:30:39;5.10;99.90
64951;DHT22;51482;47.014;7.652;2022-12-18T14:33:13;4.60;99.90
64951;DHT22;51482;47.014;7.652;2022-12-18T14:36:00;4.30;99.90
64951;DHT22;51482;47.014;7.652;2022-12-18T14:41:00;4.40;99.90
64951;DHT22;51482;47.014;7.652;2022-12-18T14:43:28;4.40;99.90
64951;DHT22;51482;47.014;7.652;2022-12-18T14:45:55;4.20;99.90
64951;DHT22;51482;47.014;7.652;2022-12-18T14:48:41;3.90;99.90
64951;DHT22;51482;47.014;7.652;2022-12-18T14:53:54;4.00;99.90
64951;DHT22;51482;47.014;7.652;2022-12-18T14:56:29;3.20;99.90
64951;DHT22;51482;47.014;7.652;2022-12-18T14:58:59;3.20;99.90
64951;DHT22;51482;47.014;7.652;2022-12-18T15:03:57;3.00;99.90
64951;DHT22;51482;47.014;7.652;2022-12-18T15:06:29;3.10;99.90
64951;DHT22;51482;47.014;7.652;2022-12-18T15:08:57;3.30;99.90
64951;DHT22;51482;47.014;7.652;2022-12-18T15:11:44;2.60;99.90
64951;DHT22;51482;47.014;7.652;2022-12-18T15:16:55;2.20;99.90
64951;DHT22;51482;47.014;7.652;2022-12-18T15:19:22;1.40;99.90
64951;DHT22;51482;47.014;7.652;2022-12-18T15:21:51;2.60;99.90
64951;DHT22;51482;47.014;7.652;2022-12-18T15:24:20;1.40;99.90
64951;DHT22;51482;47.014;7.652;2022-12-18T15:26:47;1.70;99.90
64951;DHT22;51482;47.014;7.652;2022-12-18T15:29:21;2.00;99.90
64951;DHT22;51482;47.014;7.652;2022-12-18T15:32:19;2.00;99.90
64951;DHT22;51482;47.014;7.652;2022-12-18T15:34:46;1.40;99.90
64951;DHT22;51482;47.014;7.652;2022-12-18T15:37:11;1.40;99.90
64951;DHT22;51482;47.014;7.652;2022-12-18T15:39:37;1.80;99.90
64951;DHT22;51482;47.014;7.652;2022-12-18T15:42:03;1.30;99.90
64951;DHT22;51482;47.014;7.652;2022-12-18T15:44:47;1.20;99.90
64951;DHT22;51482;47.014;7.652;2022-12-18T15:47:13;1.70;99.90
64951;DHT22;51482;47.014;7.652;2022-12-18T15:49:39;1.20;99.90
64951;DHT22;51482;47.014;7.652;2022-12-18T15:52:05;0.90;99.90
64951;DHT22;51482;47.014;7.652;2022-12-18T15:54:31;1.30;99.90
64951;DHT22;51482;47.014;7.652;2022-12-18T15:57:15;0.50;99.90
64951;DHT22;51482;47.014;7.652;2022-12-18T15:59:52;1.30;99.90
64951;DHT22;51482;47.014;7.652;2022-12-18T16:02:19;1.20;99.90
64951;DHT22;51482;47.014;7.652;2022-12-18T16:04:45;0.60;99.90
64951;DHT22;51482;47.014;7.652;2022-12-18T16:07:11;0.20;99.90
64951;DHT22;51482;47.014;7.652;2022-12-18T16:09:37;1.00;99.90
64951;DHT22;51482;47.014;7.652;2022-12-18T16:12:04;0.60;99.90
64951;DHT22;51482;47.014;7.652;2022-12-18T16:14:31;0.40;99.90
64951;DHT22;51482;47.014;7.652;2022-12-18T16:17:03;0.40;99.90
64951;DHT22;51482;47.014;7.652;2022-12-18T16:19:30;0.30;99.90
64951;DHT22;51482;47.014;7.652;2022-12-18T16:21:57;0.60;99.90
64951;DHT22;51482;47.014;7.652;2022-12-18T16:24:29;0.30;99.90
64951;DHT22;51482;47.014;7.652;2022-12-18T16:26:58;0.20;99.90
64951;DHT22;51482;47.014;7.652;2022-12-18T16:29:25;0.10;99.90
64951;DHT22;51482;47.014;7.652;2022-12-18T16:31:56;0.10;99.90
64951;DHT22;51482;47.014;7.652;2022-12-18T16:37:00;0.10;99.90
64951;DHT22;51482;47.014;7.652;2022-12-18T16:39:27;0.20;99.90
64951;DHT22;51482;47.014;7.652;2022-12-18T16:41:53;0.30;99.90
64951;DHT22;51482;47.014;7.652;2022-12-18T16:44:19;0.20;99.90
64951;DHT22;51482;47.014;7.652;2022-12-18T16:46:46;0.10;99.90
64951;DHT22;51482;47.014;7.652;2022-12-18T16:49:13;0.10;99.90
64951;DHT22;51482;47.014;7.652;2022-12-18T16:51:38;0.70;99.90
64951;DHT22;51482;47.014;7.652;2022-12-18T16:54:04;0.90;99.90
64951;DHT22;51482;47.014;7.652;2022-12-18T16:56:30;0.80;99.90
64951;DHT22;51482;47.014;7.652;2022-12-18T16:58:59;0.30;99.90
64951;DHT22;51482;47.014;7.652;2022-12-18T17:01:26;0.60;99.90
64951;DHT22;51482;47.014;7.652;2022-12-18T17:03:59;0.80;99.90
64951;DHT22;51482;47.014;7.652;2022-12-18T17:06:26;-0.90;99.90
64951;DHT22;51482;47.014;7.652;2022-12-18T17:11:23;0.30;99.90
64951;DHT22;51482;47.014;7.652;2022-12-18T17:13:49;0.20;99.90
64951;DHT22;51482;47.014;7.652;2022-12-18T17:16:14;0.20;99.90
64951;DHT22;51482;47.014;7.652;2022-12-18T17:18:41;0.40;99.90
64951;DHT22;51482;47.014;7.652;2022-12-18T17:21:08;0.10;99.90
64951;DHT22;51482;47.014;7.652;2022-12-18T17:23:35;-0.30;99.90
64951;DHT22;51482;47.014;7.652;2022-12-18T17:26:02;0.30;99.90
64951;DHT22;51482;47.014;7.652;2022-12-18T17:28:29;0.30;99.90
64951;DHT22;51482;47.014;7.652;2022-12-18T17:30:55;0.00;99.90
64951;DHT22;51482;47.014;7.652;2022-12-18T17:33:22;0.10;99.90
64951;DHT22;51482;47.014;7.652;2022-12-18T17:35:47;0.60;99.90
64951;DHT22;51482;47.014;7.652;2022-12-18T17:38:14;0.70;99.90
64951;DHT22;51482;47.014;7.652;2022-12-18T17:40:40;0.20;99.90
64951;DHT22;51482;47.014;7.652;2022-12-18T17:43:09;0.70;99.90
64951;DHT22;51482;47.014;7.652;2022-12-18T17:45:37;0.10;99.90
64951;DHT22;51482;47.014;7.652;2022-12-18T17:48:04;0.70;99.90
64951;DHT22;51482;47.014;7.652;2022-12-18T17:50:31;0.20;99.90
64951;DHT22;51482;47.014;7.652;2022-12-18T17:52:57;0.70;99.90
64951;DHT22;51482;47.014;7.652;2022-12-18T17:55:23;0.20;99.90